Time;durP1;ratioP1;P1;durP2;ratioP2;P2;SDS_P1;SDS_P2;PMS_P1;PMS_P2;Temp;Humidity;BMP_temperature;BMP_pressure;BME280_temperature;BME280_humidity;BME280_pressure;Samples;Min_cycle;Max_cycle;Signal;HPM_P1;HPM_P2
2023/06/05 00:00:33;;;;;;;4.23;1.83;;;15.60;56.10;;;;;;4949200;28;20311;-71
2023/06/05 00:02:59;;;;;;;2.43;1.80;;;15.60;56.60;;;;;;4952040;28;20217;-71
2023/06/05 00:05:27;;;;;;;2.30;1.83;;;15.50;56.60;;;;;;4958978;28;20202;-71
2023/06/05 00:07:52;;;;;;;4.23;1.87;;;15.40;56.40;;;;;;4958376;28;20775;-71
2023/06/05 00:10:18;;;;;;;2.67;2.20;;;15.50;56.10;;;;;;4953888;28;20287;-70
2023/06/05 00:12:44;;;;;;;3.70;2.03;;;15.50;56.00;;;;;;4952569;28;20221;-71
2023/06/05 00:15:10;;;;;;;2.57;1.70;;;15.40;56.00;;;;;;4958509;28;20203;-70
2023/06/05 00:17:36;;;;;;;2.83;1.83;;;15.20;56.20;;;;;;4958599;28;20256;-70
2023/06/05 00:20:03;;;;;;;1.93;1.73;;;15.20;56.40;;;;;;4958262;28;20217;-71
2023/06/05 00:22:31;;;;;;;2.10;1.70;;;15.20;56.40;;;;;;4958572;28;20270;-70
2023/06/05 00:24:56;;;;;;;1.80;1.70;;;15.20;56.50;;;;;;4957914;28;20770;-71
2023/06/05 00:27:22;;;;;;;1.80;1.60;;;15.10;56.60;;;;;;4957976;28;20201;-64
2023/06/05 00:29:48;;;;;;;3.70;1.97;;;15.00;56.90;;;;;;4958496;28;20599;-64
2023/06/05 00:32:13;;;;;;;2.13;1.83;;;15.00;57.00;;;;;;4958594;28;20217;-63
2023/06/05 00:34:39;;;;;;;3.07;1.97;;;14.80;57.50;;;;;;4941261;28;20251;-64
2023/06/05 00:37:04;;;;;;;4.20;2.23;;;14.70;58.00;;;;;;4958732;28;20671;-64
2023/06/05 00:39:30;;;;;;;1.77;1.67;;;14.70;58.30;;;;;;4951573;28;20206;-65
2023/06/05 00:41:55;;;;;;;2.50;1.80;;;14.60;58.50;;;;;;4953970;28;20707;-63
2023/06/05 00:44:21;;;;;;;2.17;1.40;;;14.60;58.70;;;;;;4949484;28;20209;-64
2023/06/05 00:46:50;;;;;;;2.13;1.93;;;14.50;59.00;;;;;;4946514;28;20389;-64
2023/06/05 00:49:15;;;;;;;4.23;2.10;;;14.40;59.40;;;;;;4941461;28;20712;-65
2023/06/05 00:51:43;;;;;;;3.33;2.10;;;14.40;59.50;;;;;;4942757;28;20209;-64
2023/06/05 00:54:10;;;;;;;4.30;2.30;;;14.40;59.60;;;;;;4945254;28;20300;-63
2023/06/05 00:56:36;;;;;;;2.63;1.57;;;14.50;59.70;;;;;;4946071;28;20205;-66
2023/06/05 00:59:02;;;;;;;2.17;1.50;;;14.40;59.60;;;;;;4942944;28;20213;-66
2023/06/05 01:01:32;;;;;;;2.23;2.00;;;14.30;60.00;;;;;;4941896;28;20206;-69
2023/06/05 01:03:57;;;;;;;2.03;1.87;;;14.20;61.00;;;;;;4939197;28;20578;-67
2023/06/05 01:06:28;;;;;;;1.70;1.40;;;14.20;61.10;;;;;;4943331;28;20221;-66
2023/06/05 01:08:56;;;;;;;2.07;1.87;;;14.20;61.10;;;;;;4943163;28;20281;-66
2023/06/05 01:11:35;;;;;;;2.83;2.53;;;14.30;60.50;;;;;;4942137;28;20240;-66
2023/06/05 01:14:07;;;;;;;4.27;1.80;;;14.30;60.60;;;;;;4941233;28;20232;-65
2023/06/05 01:16:34;;;;;;;2.63;1.80;;;14.30;61.00;;;;;;4943374;28;20744;-65
2023/06/05 01:19:03;;;;;;;1.83;1.67;;;14.20;61.50;;;;;;4943573;28;20568;-66
2023/06/05 01:21:30;;;;;;;2.13;1.93;;;14.20;62.20;;;;;;4943515;28;20264;-63
2023/06/05 01:23:57;;;;;;;1.93;1.70;;;14.20;62.10;;;;;;4937683;28;20258;-63
2023/06/05 01:26:30;;;;;;;3.83;2.20;;;14.10;62.50;;;;;;4942528;28;20210;-64
2023/06/05 01:28:57;;;;;;;3.03;2.07;;;14.10;63.50;;;;;;4940323;28;20891;-63
2023/06/05 01:31:26;;;;;;;2.67;1.80;;;14.10;64.40;;;;;;4952189;28;20296;-63
2023/06/05 01:34:01;;;;;;;4.83;2.10;;;14.10;64.40;;;;;;4957928;28;20684;-63
2023/06/05 01:36:29;;;;;;;2.20;1.87;;;14.10;64.00;;;;;;4953361;28;20674;-63
2023/06/05 01:38:56;;;;;;;3.87;2.00;;;14.00;64.60;;;;;;4957016;28;20205;-63
2023/06/05 01:41:22;;;;;;;3.90;2.30;;;14.00;64.20;;;;;;4948986;28;20672;-64
2023/06/05 01:43:49;;;;;;;3.77;2.53;;;13.90;64.90;;;;;;4955203;28;20205;-63
2023/06/05 01:46:18;;;;;;;3.30;2.27;;;14.00;65.50;;;;;;4957796;28;20205;-62
2023/06/05 01:48:44;;;;;;;3.43;1.90;;;14.00;66.50;;;;;;4957742;28;20201;-62
2023/06/05 01:51:10;;;;;;;2.63;2.20;;;13.90;64.60;;;;;;4957451;28;20558;-62
2023/06/05 01:53:35;;;;;;;3.23;2.00;;;13.90;66.60;;;;;;4952845;28;20213;-64
2023/06/05 01:56:03;;;;;;;2.80;1.97;;;13.90;66.90;;;;;;4952895;28;20190;-62
2023/06/05 01:58:28;;;;;;;2.30;2.00;;;13.90;66.70;;;;;;4947397;28;20711;-63
2023/06/05 02:00:56;;;;;;;2.10;1.90;;;13.80;65.60;;;;;;4952838;28;20200;-63
2023/06/05 02:03:22;;;;;;;2.43;2.17;;;13.80;66.20;;;;;;4957559;28;20201;-63
2023/06/05 02:05:48;;;;;;;1.90;1.80;;;13.80;66.00;;;;;;4957517;28;20202;-63
2023/06/05 02:08:19;;;;;;;4.00;2.20;;;13.80;66.10;;;;;;4957656;28;20226;-63
2023/06/05 02:10:47;;;;;;;2.90;1.67;;;13.70;66.50;;;;;;4957881;28;20205;-63
2023/06/05 02:13:15;;;;;;;3.57;1.80;;;13.80;67.20;;;;;;4957751;28;20228;-63
2023/06/05 02:15:41;;;;;;;2.03;1.70;;;13.70;67.00;;;;;;4957372;28;20245;-63
2023/06/05 02:18:07;;;;;;;2.87;2.00;;;13.60;67.50;;;;;;4956317;28;20691;-63
2023/06/05 02:20:34;;;;;;;4.07;2.00;;;13.60;68.10;;;;;;4957474;28;20661;-64
2023/06/05 02:23:00;;;;;;;3.20;2.00;;;13.60;67.80;;;;;;4960654;28;20283;-63
2023/06/05 02:25:28;;;;;;;2.17;2.00;;;13.60;69.00;;;;;;4956722;28;20578;-63
2023/06/05 02:27:55;;;;;;;2.27;2.07;;;13.60;70.10;;;;;;4960958;28;20247;-63
2023/06/05 02:30:21;;;;;;;2.97;1.70;;;13.60;69.40;;;;;;4958166;28;20213;-63
2023/06/05 02:32:48;;;;;;;3.07;2.20;;;13.50;69.30;;;;;;4950879;28;20357;-63
2023/06/05 02:35:14;;;;;;;2.70;2.07;;;13.50;69.60;;;;;;4950641;28;20239;-64
2023/06/05 02:37:46;;;;;;;2.50;1.93;;;13.50;69.90;;;;;;4951081;28;20197;-63
2023/06/05 02:40:13;;;;;;;10.20;2.00;;;13.50;71.90;;;;;;4949593;28;20593;-63
2023/06/05 02:42:40;;;;;;;5.77;1.90;;;13.50;70.60;;;;;;4951926;28;20248;-64
2023/06/05 02:45:07;;;;;;;1.77;1.60;;;13.50;71.00;;;;;;4949019;28;20234;-64
2023/06/05 02:47:32;;;;;;;2.97;1.57;;;13.50;71.20;;;;;;4950759;28;20201;-63
2023/06/05 02:49:58;;;;;;;4.17;2.00;;;13.50;72.60;;;;;;4950557;28;20743;-64
2023/06/05 02:52:34;;;;;;;2.30;1.73;;;13.50;73.90;;;;;;4953043;28;20221;-63
2023/06/05 02:55:01;;;;;;;4.70;1.87;;;13.50;73.50;;;;;;4948586;28;20193;-63
2023/06/05 02:57:26;;;;;;;2.43;2.17;;;13.40;73.30;;;;;;4950812;28;20712;-62
2023/06/05 02:59:52;;;;;;;2.67;2.37;;;13.30;73.60;;;;;;4950165;28;20244;-63
2023/06/05 03:02:17;;;;;;;4.40;1.97;;;13.20;73.50;;;;;;4950392;28;20193;-63
2023/06/05 03:04:43;;;;;;;5.70;2.93;;;13.20;74.10;;;;;;4954413;28;20206;-63
2023/06/05 03:07:09;;;;;;;8.43;3.33;;;13.20;74.00;;;;;;4952058;28;20302;-64
2023/06/05 03:09:36;;;;;;;4.17;2.57;;;13.10;75.20;;;;;;4947868;28;20202;-64
2023/06/05 03:12:01;;;;;;;2.43;1.90;;;13.00;75.20;;;;;;4950134;28;20577;-64
2023/06/05 03:14:27;;;;;;;2.40;2.17;;;13.10;75.50;;;;;;4948316;28;20222;-64
2023/06/05 03:16:53;;;;;;;2.27;1.93;;;13.00;75.50;;;;;;4951199;28;20250;-63
2023/06/05 03:19:19;;;;;;;2.00;1.80;;;13.20;74.90;;;;;;4950171;28;20226;-64
2023/06/05 03:21:45;;;;;;;5.57;2.60;;;13.30;74.10;;;;;;4950308;28;20186;-63
2023/06/05 03:24:14;;;;;;;1.83;1.73;;;13.20;74.50;;;;;;4951165;28;20233;-63
2023/06/05 03:26:40;;;;;;;5.73;2.20;;;13.30;74.30;;;;;;4947957;28;20658;-64
2023/06/05 03:29:07;;;;;;;3.57;1.83;;;13.30;74.60;;;;;;4949750;28;20324;-64
2023/06/05 03:31:33;;;;;;;3.07;2.17;;;13.30;75.60;;;;;;4949698;28;20707;-64
2023/06/05 03:33:59;;;;;;;1.70;1.60;;;13.30;75.60;;;;;;4952607;28;20758;-64
2023/06/05 03:36:29;;;;;;;3.30;2.23;;;13.30;76.00;;;;;;4947729;28;20234;-64
2023/06/05 03:38:55;;;;;;;2.10;1.90;;;13.30;75.40;;;;;;4951893;28;20202;-65
2023/06/05 03:41:21;;;;;;;4.97;2.50;;;13.30;75.90;;;;;;4959776;28;20220;-64
2023/06/05 03:43:47;;;;;;;1.67;1.57;;;13.30;74.90;;;;;;4958675;28;20210;-64
2023/06/05 03:46:18;;;;;;;2.07;1.80;;;13.20;75.10;;;;;;4959387;28;20682;-63
2023/06/05 03:48:44;;;;;;;4.50;2.27;;;13.30;75.00;;;;;;4957549;28;20598;-65
2023/06/05 03:51:09;;;;;;;2.70;1.97;;;13.20;74.70;;;;;;4959188;28;20574;-64
2023/06/05 03:53:39;;;;;;;2.83;1.97;;;13.30;75.50;;;;;;4959616;28;20217;-64
2023/06/05 03:56:05;;;;;;;3.50;2.13;;;13.40;76.60;;;;;;4959235;28;20263;-64
2023/06/05 03:58:31;;;;;;;4.93;2.17;;;13.30;80.00;;;;;;4959497;28;20193;-64
2023/06/05 04:00:57;;;;;;;5.43;2.30;;;13.40;79.20;;;;;;4958558;28;20189;-64
2023/06/05 04:03:23;;;;;;;3.50;2.20;;;13.30;78.20;;;;;;4959357;28;20214;-64
2023/06/05 04:05:48;;;;;;;5.53;2.43;;;13.30;77.80;;;;;;4958678;28;20583;-64
2023/06/05 04:08:14;;;;;;;2.83;2.20;;;13.40;77.30;;;;;;4959203;28;20224;-64
2023/06/05 04:10:40;;;;;;;2.07;1.87;;;13.40;79.00;;;;;;4958950;28;20699;-64
2023/06/05 04:13:05;;;;;;;4.10;2.13;;;13.40;79.30;;;;;;4959020;28;20225;-62
2023/06/05 04:15:31;;;;;;;3.00;1.90;;;13.40;79.60;;;;;;4956815;28;20204;-63
2023/06/05 04:17:57;;;;;;;3.83;2.47;;;13.40;79.70;;;;;;4959072;28;20194;-63
2023/06/05 04:20:22;;;;;;;2.83;2.20;;;13.40;80.50;;;;;;4939765;28;20212;-63
2023/06/05 04:22:49;;;;;;;6.60;2.30;;;13.50;79.50;;;;;;4952763;28;20356;-62
2023/06/05 04:25:15;;;;;;;4.43;2.40;;;13.40;80.80;;;;;;4958748;28;20220;-63
2023/06/05 04:27:42;;;;;;;5.77;2.47;;;13.50;80.60;;;;;;4958793;28;20209;-63
2023/06/05 04:30:10;;;;;;;4.00;2.17;;;13.60;81.40;;;;;;4958432;28;20196;-62
2023/06/05 04:32:38;;;;;;;3.27;1.83;;;13.60;81.10;;;;;;4958521;28;20212;-63
2023/06/05 04:35:06;;;;;;;7.67;2.10;;;13.60;85.60;;;;;;4958547;28;20271;-64
2023/06/05 04:37:32;;;;;;;14.40;2.60;;;13.70;87.90;;;;;;4958582;28;20205;-64
2023/06/05 04:40:00;;;;;;;7.40;2.53;;;13.70;89.90;;;;;;4958087;28;20252;-64
2023/06/05 04:42:26;;;;;;;4.20;1.90;;;13.70;90.20;;;;;;4958481;28;20209;-64
2023/06/05 04:45:00;;;;;;;6.53;2.77;;;13.80;90.40;;;;;;4958006;28;20305;-63
2023/06/05 04:47:27;;;;;;;4.93;2.67;;;13.80;88.80;;;;;;4957545;28;20201;-63
2023/06/05 04:49:53;;;;;;;3.20;2.33;;;13.90;92.20;;;;;;4949088;28;20209;-62
2023/06/05 04:52:20;;;;;;;5.33;2.73;;;13.90;92.90;;;;;;4958463;28;20197;-64
2023/06/05 04:54:46;;;;;;;3.57;2.17;;;14.00;92.80;;;;;;4958777;28;20828;-62
2023/06/05 04:57:12;;;;;;;6.57;2.30;;;14.00;93.60;;;;;;4958380;28;20201;-62
2023/06/05 04:59:37;;;;;;;4.97;2.80;;;14.00;94.30;;;;;;4957465;28;20958;-63
2023/06/05 05:02:03;;;;;;;7.10;2.50;;;14.10;94.60;;;;;;4944730;28;20201;-62
2023/06/05 05:04:29;;;;;;;4.87;1.97;;;14.10;94.30;;;;;;4958414;28;20208;-64
2023/06/05 05:07:00;;;;;;;4.97;2.47;;;14.20;92.50;;;;;;4958440;28;20253;-62
2023/06/05 05:09:26;;;;;;;3.03;1.83;;;14.30;92.40;;;;;;4957984;28;20245;-63
2023/06/05 05:11:52;;;;;;;2.33;2.10;;;14.30;92.50;;;;;;4957404;28;20288;-63
2023/06/05 05:14:17;;;;;;;2.80;2.07;;;14.40;90.60;;;;;;4958014;28;20275;-62
2023/06/05 05:16:43;;;;;;;2.83;1.60;;;14.50;86.20;;;;;;4956263;28;20705;-62
2023/06/05 05:19:08;;;;;;;1.53;1.40;;;14.60;84.00;;;;;;4954877;28;20213;-62
2023/06/05 05:21:35;;;;;;;2.83;2.03;;;14.70;84.70;;;;;;4957386;28;20891;-63
2023/06/05 05:24:00;;;;;;;4.87;2.33;;;14.80;85.60;;;;;;4955698;28;20225;-63
2023/06/05 05:26:26;;;;;;;4.00;2.63;;;14.90;84.60;;;;;;4958148;28;20658;-62
2023/06/05 05:28:51;;;;;;;6.53;3.50;;;15.00;87.00;;;;;;4958106;28;20676;-62
2023/06/05 05:31:17;;;;;;;6.03;2.57;;;15.10;88.80;;;;;;4958166;28;20464;-63
2023/06/05 05:33:43;;;;;;;6.37;2.37;;;15.10;89.50;;;;;;4958270;28;20623;-64
2023/06/05 05:36:08;;;;;;;5.97;2.17;;;15.20;86.10;;;;;;4957848;28;20764;-64
2023/06/05 05:38:34;;;;;;;2.73;1.77;;;15.20;87.10;;;;;;4947385;28;20194;-64
2023/06/05 05:40:59;;;;;;;3.40;2.20;;;15.30;80.90;;;;;;4948777;28;20245;-64
2023/06/05 05:43:25;;;;;;;5.33;2.13;;;15.40;83.00;;;;;;4948490;28;20214;-64
2023/06/05 05:45:51;;;;;;;4.67;1.97;;;15.50;81.90;;;;;;4948928;28;20202;-64
2023/06/05 05:48:17;;;;;;;7.60;2.10;;;15.60;78.70;;;;;;4949275;28;20225;-64
2023/06/05 05:50:43;;;;;;;2.50;1.80;;;15.60;80.50;;;;;;4947378;28;20201;-64
2023/06/05 05:53:08;;;;;;;2.93;1.70;;;15.90;74.20;;;;;;4947609;28;20672;-64
2023/06/05 05:55:34;;;;;;;3.13;1.73;;;15.90;76.90;;;;;;4950253;28;20206;-67
2023/06/05 05:57:59;;;;;;;2.13;1.90;;;16.00;74.60;;;;;;4961186;28;20907;-64
2023/06/05 06:00:25;;;;;;;3.43;1.90;;;16.20;72.50;;;;;;4961986;28;20208;-64
2023/06/05 06:02:52;;;;;;;1.83;1.73;;;16.30;71.70;;;;;;4959847;28;20296;-66
2023/06/05 06:05:18;;;;;;;5.10;2.30;;;16.50;71.20;;;;;;4959922;28;20290;-66
2023/06/05 06:07:43;;;;;;;2.20;1.80;;;16.80;69.60;;;;;;4961195;28;20735;-66
2023/06/05 06:10:11;;;;;;;2.20;1.90;;;17.00;68.30;;;;;;4961499;28;20205;-67
2023/06/05 06:12:37;;;;;;;3.57;1.93;;;17.10;66.40;;;;;;4960825;28;20206;-66
2023/06/05 06:15:04;;;;;;;5.10;2.23;;;17.20;66.30;;;;;;4959423;28;20197;-67
2023/06/05 06:17:29;;;;;;;5.07;1.97;;;17.30;66.00;;;;;;4960199;28;20203;-66
2023/06/05 06:19:55;;;;;;;3.00;2.03;;;17.40;68.10;;;;;;4955705;28;20213;-65
2023/06/05 06:22:21;;;;;;;2.20;1.80;;;17.50;65.40;;;;;;4958848;28;20569;-66
2023/06/05 06:24:47;;;;;;;7.13;2.23;;;17.60;65.20;;;;;;4961010;28;20218;-65
2023/06/05 06:27:13;;;;;;;4.43;2.20;;;17.60;66.10;;;;;;4956469;28;20749;-65
2023/06/05 06:29:49;;;;;;;4.67;2.30;;;17.80;65.00;;;;;;4961294;28;20206;-66
2023/06/05 06:32:19;;;;;;;3.63;2.03;;;17.80;63.30;;;;;;4961254;28;20245;-66
2023/06/05 06:34:44;;;;;;;3.90;2.00;;;17.90;62.50;;;;;;4958540;28;20212;-66
2023/06/05 06:37:14;;;;;;;8.17;2.20;;;18.00;62.30;;;;;;4961014;28;20207;-66
2023/06/05 06:39:41;;;;;;;3.50;1.83;;;18.10;63.10;;;;;;4961457;28;20212;-66
2023/06/05 06:42:06;;;;;;;6.97;2.43;;;18.10;61.80;;;;;;4960828;28;20570;-65
2023/06/05 06:44:32;;;;;;;3.80;2.03;;;18.10;61.00;;;;;;4955946;28;20202;-67
2023/06/05 06:46:58;;;;;;;3.93;2.10;;;18.30;60.50;;;;;;4958936;28;20241;-66
2023/06/05 06:49:23;;;;;;;2.40;1.93;;;18.30;59.90;;;;;;4961011;28;20696;-67
2023/06/05 06:51:49;;;;;;;4.10;2.87;;;18.30;60.80;;;;;;4960795;28;20287;-66
2023/06/05 06:54:14;;;;;;;5.00;3.00;;;18.50;61.20;;;;;;4960779;28;20216;-66
2023/06/05 06:56:40;;;;;;;2.40;1.50;;;18.50;58.50;;;;;;4955992;28;20810;-65
2023/06/05 06:59:14;;;;;;;2.77;1.90;;;18.70;57.80;;;;;;4960639;28;20211;-65
2023/06/05 07:01:47;;;;;;;3.17;2.10;;;18.70;59.50;;;;;;4948715;28;20774;-65
2023/06/05 07:04:20;;;;;;;6.93;3.33;;;18.90;57.10;;;;;;4955942;28;20212;-65
2023/06/05 07:06:46;;;;;;;2.97;2.10;;;19.00;56.80;;;;;;4958150;28;20671;-65
2023/06/05 07:09:12;;;;;;;7.60;2.03;;;18.80;58.20;;;;;;4956306;28;20213;-66
2023/06/05 07:11:38;;;;;;;3.13;1.97;;;18.80;57.10;;;;;;4960428;28;20213;-65
2023/06/05 07:14:03;;;;;;;4.27;2.27;;;19.00;57.70;;;;;;4960153;28;20255;-67
2023/06/05 07:16:29;;;;;;;4.17;1.80;;;19.10;57.10;;;;;;4960530;28;20676;-65
2023/06/05 07:18:55;;;;;;;6.37;2.30;;;19.30;55.20;;;;;;4958598;28;20197;-67
2023/06/05 07:21:21;;;;;;;1.67;1.57;;;19.40;55.10;;;;;;4960216;28;20211;-66
2023/06/05 07:23:53;;;;;;;6.23;1.70;;;19.50;55.00;;;;;;4959812;28;20225;-65
2023/06/05 07:26:19;;;;;;;2.80;1.73;;;19.40;55.30;;;;;;4959495;28;20232;-66
2023/06/05 07:28:46;;;;;;;7.70;2.60;;;19.40;56.30;;;;;;4955707;28;20196;-66
2023/06/05 07:31:13;;;;;;;1.70;1.60;;;19.40;54.80;;;;;;4958913;28;20602;-66
2023/06/05 07:33:38;;;;;;;2.87;2.00;;;19.50;55.00;;;;;;4959807;28;20220;-66
2023/06/05 07:36:04;;;;;;;4.03;2.23;;;19.50;54.70;;;;;;4959973;28;20201;-66
2023/06/05 07:38:30;;;;;;;3.47;2.43;;;19.60;54.10;;;;;;4956679;28;20209;-66
2023/06/05 07:40:58;;;;;;;2.30;1.83;;;19.50;56.80;;;;;;4944492;28;20228;-66
2023/06/05 07:43:26;;;;;;;3.47;2.47;;;19.60;55.30;;;;;;4943895;28;20269;-66
2023/06/05 07:45:51;;;;;;;5.63;1.90;;;19.60;55.90;;;;;;4945202;28;20213;-67
2023/06/05 07:48:17;;;;;;;10.30;3.20;;;19.60;54.00;;;;;;4945190;28;20732;-65
2023/06/05 07:50:42;;;;;;;2.57;1.87;;;20.00;52.50;;;;;;4953684;28;20293;-66
2023/06/05 07:53:08;;;;;;;5.73;1.87;;;20.20;51.80;;;;;;4934490;29;20730;-65
2023/06/05 07:55:33;;;;;;;6.23;2.10;;;20.30;51.20;;;;;;4942630;28;20230;-65
2023/06/05 07:57:59;;;;;;;3.83;1.50;;;20.10;52.40;;;;;;4946526;28;20204;-65
2023/06/05 08:00:26;;;;;;;2.97;1.97;;;20.30;50.10;;;;;;4943966;28;20206;-65
2023/06/05 08:02:53;;;;;;;4.00;2.10;;;20.50;50.50;;;;;;4949608;28;20220;-65
2023/06/05 08:05:19;;;;;;;5.00;1.70;;;20.50;50.70;;;;;;4955146;28;20442;-64
2023/06/05 08:07:45;;;;;;;3.10;2.10;;;20.50;51.60;;;;;;4945241;28;20202;-65
2023/06/05 08:10:11;;;;;;;5.97;2.20;;;20.50;51.30;;;;;;4944962;28;20210;-65
2023/06/05 08:12:37;;;;;;;5.00;2.10;;;20.50;53.10;;;;;;4954951;28;20204;-66
2023/06/05 08:15:03;;;;;;;3.73;2.27;;;20.60;52.40;;;;;;4958951;28;20205;-65
2023/06/05 08:17:28;;;;;;;2.07;1.90;;;20.80;50.00;;;;;;4957367;28;20615;-66
2023/06/05 08:19:54;;;;;;;4.40;2.00;;;20.80;50.30;;;;;;4944614;28;20197;-65
2023/06/05 08:22:19;;;;;;;4.60;1.90;;;20.80;48.90;;;;;;4948928;28;21002;-77
2023/06/05 08:24:45;;;;;;;5.60;1.87;;;21.00;48.50;;;;;;4946871;28;20219;-73
2023/06/05 08:27:11;;;;;;;3.53;1.50;;;21.00;50.00;;;;;;4932456;28;20619;-72
2023/06/05 08:29:37;;;;;;;1.87;1.63;;;21.00;48.70;;;;;;4949661;28;20284;-74
2023/06/05 08:32:06;;;;;;;5.77;1.90;;;21.20;47.90;;;;;;4947575;28;20209;-74
2023/06/05 08:34:32;;;;;;;2.83;1.50;;;21.10;49.30;;;;;;4931328;28;20220;-69
2023/06/05 08:37:03;;;;;;;2.73;1.50;;;21.00;50.20;;;;;;4948762;28;20454;-73
2023/06/05 08:39:31;;;;;;;5.83;1.73;;;21.00;47.40;;;;;;4946991;28;20213;-69
2023/06/05 08:42:00;;;;;;;2.90;2.00;;;21.20;48.80;;;;;;4947067;28;20300;-71
2023/06/05 08:44:30;;;;;;;7.13;1.93;;;21.30;49.10;;;;;;4949373;28;20584;-71
2023/06/05 08:47:00;;;;;;;5.90;2.30;;;21.30;47.70;;;;;;4949521;28;20577;-71
2023/06/05 08:49:36;;;;;;;5.03;2.10;;;21.50;48.70;;;;;;4947269;28;20209;-72
2023/06/05 08:52:05;;;;;;;4.67;1.60;;;21.60;47.90;;;;;;4949104;28;20213;-72
2023/06/05 08:54:49;;;;;;;2.03;1.57;;;21.60;47.70;;;;;;4948877;28;20225;-72
2023/06/05 08:57:15;;;;;;;3.17;1.60;;;21.60;48.20;;;;;;4943427;28;20202;-72
2023/06/05 08:59:43;;;;;;;2.20;2.00;;;21.70;46.80;;;;;;4949671;28;20224;-72
2023/06/05 09:02:09;;;;;;;1.53;1.43;;;21.90;48.00;;;;;;4950608;28;20197;-71
2023/06/05 09:04:35;;;;;;;3.20;1.77;;;22.00;48.60;;;;;;4946572;28;20217;-68
2023/06/05 09:07:01;;;;;;;4.53;2.10;;;22.00;47.10;;;;;;4936822;28;20209;-73
2023/06/05 09:09:26;;;;;;;2.40;1.87;;;22.10;47.20;;;;;;4958789;28;20205;-71
2023/06/05 09:12:06;;;;;;;3.33;2.30;;;22.00;46.70;;;;;;4958710;28;20202;-73
2023/06/05 09:14:35;;;;;;;2.37;1.53;;;21.90;47.90;;;;;;4958465;28;20268;-70
2023/06/05 09:17:02;;;;;;;3.42;1.52;;;22.00;47.60;;;;;;4958383;28;20235;-70
2023/06/05 09:19:38;;;;;;;2.23;1.70;;;22.20;47.20;;;;;;4958124;28;20205;-71
2023/06/05 09:22:06;;;;;;;2.40;1.83;;;22.30;46.50;;;;;;4958098;28;20196;-73
2023/06/05 09:24:32;;;;;;;5.87;2.10;;;22.40;47.00;;;;;;4958597;28;20233;-73
2023/06/05 09:27:02;;;;;;;2.23;1.87;;;22.50;45.20;;;;;;4953739;28;20205;-69
2023/06/05 09:29:29;;;;;;;4.65;1.55;;;22.40;45.40;;;;;;4954032;28;20209;-69
2023/06/05 09:32:00;;;;;;;3.60;1.33;;;22.40;45.00;;;;;;4947703;28;20201;-70
2023/06/05 09:34:27;;;;;;;5.68;2.28;;;22.50;45.70;;;;;;4953513;28;20723;-70
2023/06/05 09:36:54;;;;;;;3.83;1.90;;;22.60;46.90;;;;;;4927587;28;20198;-71
2023/06/05 09:39:21;;;;;;;2.53;1.70;;;22.60;45.50;;;;;;4925658;28;20348;-71
2023/06/05 09:41:48;;;;;;;1.90;1.60;;;22.70;44.80;;;;;;4927124;28;20222;-71
2023/06/05 09:44:15;;;;;;;3.13;1.70;;;22.70;44.50;;;;;;4945014;28;20203;-69
2023/06/05 09:47:07;;;;;;;1.95;1.77;;;22.80;44.90;;;;;;4944957;28;20313;-72
2023/06/05 09:49:41;;;;;;;3.20;2.03;;;22.90;44.00;;;;;;4953449;28;20284;-71
2023/06/05 09:52:13;;;;;;;2.15;1.73;;;23.00;44.20;;;;;;4958101;28;20207;-71
2023/06/05 09:54:44;;;;;;;2.97;1.60;;;22.90;45.40;;;;;;4957999;28;20217;-75
2023/06/05 09:57:11;;;;;;;5.53;2.35;;;22.80;43.10;;;;;;4958131;28;20233;-73
2023/06/05 09:59:51;;;;;;;1.63;1.53;;;22.60;52.50;;;;;;4958189;28;20244;-70
2023/06/05 10:02:20;;;;;;;2.10;1.60;;;22.30;64.20;;;;;;4958044;28;20197;-70
2023/06/05 10:04:48;;;;;;;1.67;1.57;;;21.90;47.90;;;;;;4953833;28;20316;-69
2023/06/05 10:07:15;;;;;;;1.67;1.53;;;21.70;53.00;;;;;;4941187;28;20217;-69
2023/06/05 10:09:42;;;;;;;2.27;1.80;;;21.40;66.80;;;;;;4941303;28;20205;-69
2023/06/05 10:12:09;;;;;;;2.17;1.93;;;20.90;55.60;;;;;;4939020;28;20209;-75
2023/06/05 10:14:36;;;;;;;2.17;1.97;;;21.20;55.50;;;;;;4950593;28;20276;-70
2023/06/05 10:17:02;;;;;;;1.80;1.53;;;21.00;64.20;;;;;;4948501;28;20795;-71
2023/06/05 10:19:28;;;;;;;4.33;2.13;;;21.40;52.40;;;;;;4942340;28;20197;-71
2023/06/05 10:21:54;;;;;;;5.10;2.20;;;21.30;50.20;;;;;;4943022;28;20565;-74
2023/06/05 10:24:21;;;;;;;2.60;1.80;;;21.90;48.10;;;;;;4941035;28;20288;-70
2023/06/05 10:27:12;;;;;;;3.17;2.20;;;22.00;47.90;;;;;;4943948;28;20202;-69
2023/06/05 10:30:01;;;;;;;3.97;1.70;;;21.70;64.40;;;;;;4942394;28;20208;-69
2023/06/05 10:32:59;;;;;;;3.27;1.47;;;21.70;48.40;;;;;;4922501;28;20209;-70
2023/06/05 10:36:00;;;;;;;2.33;2.00;;;21.30;57.80;;;;;;4935932;28;20218;-70
2023/06/05 10:38:27;;;;;;;2.73;1.97;;;21.20;61.10;;;;;;4939096;28;20212;-70
2023/06/05 10:40:55;;;;;;;4.00;1.90;;;20.90;57.70;;;;;;4939099;28;20684;-70
2023/06/05 10:43:48;;;;;;;3.93;1.63;;;21.30;56.20;;;;;;4945195;28;20281;-70
2023/06/05 10:46:31;;;;;;;2.30;1.70;;;21.80;53.60;;;;;;4923463;29;20204;-69
2023/06/05 10:49:19;;;;;;;5.20;2.20;;;21.70;57.80;;;;;;4941751;28;20216;-70
2023/06/05 10:51:50;;;;;;;1.70;1.60;;;21.90;50.10;;;;;;4949609;28;20259;-71
2023/06/05 10:54:21;;;;;;;1.60;1.50;;;22.50;47.80;;;;;;4946613;28;20221;-71
2023/06/05 10:56:56;;;;;;;2.70;1.63;;;22.20;51.70;;;;;;4947636;28;20189;-70
2023/06/05 10:59:28;;;;;;;2.57;1.60;;;22.10;51.80;;;;;;4926326;28;20304;-70
2023/06/05 11:02:19;;;;;;;2.97;2.10;;;22.50;50.00;;;;;;4939382;28;20205;-70
2023/06/05 11:04:46;;;;;;;1.73;1.63;;;22.90;48.20;;;;;;4937174;28;20214;-72
2023/06/05 11:07:16;;;;;;;4.47;1.93;;;22.90;48.60;;;;;;4927210;28;20530;-71
2023/06/05 11:10:00;;;;;;;4.27;2.03;;;23.50;45.60;;;;;;4941160;28;20205;-70
2023/06/05 11:12:26;;;;;;;3.77;1.77;;;24.00;47.80;;;;;;4948500;28;20301;-71
2023/06/05 11:14:51;;;;;;;3.13;1.55;;;24.30;43.10;;;;;;4954422;28;20672;-70
2023/06/05 11:17:29;;;;;;;1.60;1.50;;;24.20;47.60;;;;;;4956085;28;21003;-70
2023/06/05 11:19:55;;;;;;;4.18;1.85;;;24.30;47.70;;;;;;4952473;28;20201;-69
2023/06/05 11:22:26;;;;;;;1.92;1.70;;;24.50;43.50;;;;;;4949768;28;20783;-75
2023/06/05 11:25:13;;;;;;;1.83;1.55;;;24.70;47.60;;;;;;4950419;28;20212;-72
2023/06/05 11:27:43;;;;;;;3.75;2.00;;;24.70;47.20;;;;;;4947577;28;20205;-71
2023/06/05 11:30:12;;;;;;;3.45;1.80;;;24.70;44.00;;;;;;4941904;28;20205;-73
2023/06/05 11:32:38;;;;;;;4.03;2.00;;;24.90;45.80;;;;;;4936408;28;20216;-70
2023/06/05 11:35:05;;;;;;;2.03;1.92;;;24.70;47.60;;;;;;4941848;28;20215;-72
2023/06/05 11:37:32;;;;;;;1.85;1.55;;;24.90;46.80;;;;;;4924485;28;20198;-70
2023/06/05 11:39:58;;;;;;;2.08;1.90;;;24.90;45.60;;;;;;4943922;28;20236;-73
2023/06/05 11:42:24;;;;;;;2.03;1.83;;;24.70;44.40;;;;;;4943573;28;20206;-72
2023/06/05 11:44:50;;;;;;;1.90;1.67;;;25.20;43.40;;;;;;4942542;28;20203;-72
2023/06/05 11:47:28;;;;;;;2.05;1.90;;;25.40;46.10;;;;;;4944186;28;20209;-72
2023/06/05 11:49:53;;;;;;;5.63;1.80;;;25.40;43.70;;;;;;4945502;28;20202;-71
2023/06/05 11:52:22;;;;;;;4.35;1.92;;;25.40;42.70;;;;;;4935475;28;20220;-72
2023/06/05 11:55:05;;;;;;;2.35;2.08;;;25.60;45.30;;;;;;4941517;28;20261;-72
2023/06/05 11:57:44;;;;;;;3.38;1.75;;;25.90;39.90;;;;;;4921358;28;20206;-71
2023/06/05 12:00:11;;;;;;;3.10;2.40;;;26.30;38.60;;;;;;4952195;28;20204;-71
2023/06/05 12:02:42;;;;;;;6.72;2.03;;;26.00;41.50;;;;;;4938567;28;20234;-71
2023/06/05 12:05:09;;;;;;;4.82;1.98;;;25.80;41.00;;;;;;4941502;28;20213;-74
2023/06/05 12:07:39;;;;;;;2.22;2.00;;;26.20;38.80;;;;;;4950358;28;20205;-72
2023/06/05 12:10:07;;;;;;;3.80;1.98;;;26.40;40.00;;;;;;4949971;28;20235;-72
2023/06/05 12:12:36;;;;;;;4.57;1.67;;;26.60;40.60;;;;;;4945733;28;20267;-71
2023/06/05 12:15:17;;;;;;;6.93;2.38;;;26.50;38.10;;;;;;4947648;28;20228;-71
2023/06/05 12:17:54;;;;;;;4.00;2.33;;;26.50;37.80;;;;;;4949425;28;20301;-72
2023/06/05 12:20:21;;;;;;;2.53;1.77;;;26.40;39.50;;;;;;4942658;28;20218;-75
2023/06/05 12:22:47;;;;;;;4.10;2.30;;;26.50;42.20;;;;;;4939136;28;20225;-72
2023/06/05 12:25:17;;;;;;;1.90;1.80;;;26.20;42.10;;;;;;4947375;28;20210;-71
2023/06/05 12:27:45;;;;;;;3.40;2.40;;;26.10;41.90;;;;;;4942150;28;20224;-70
2023/06/05 12:30:11;;;;;;;2.97;2.17;;;26.30;42.20;;;;;;4941352;28;20288;-71
2023/06/05 12:32:39;;;;;;;4.30;2.30;;;26.70;37.20;;;;;;4927398;28;20669;-71
2023/06/05 12:35:05;;;;;;;2.15;1.95;;;27.10;37.80;;;;;;4949175;28;20303;-70
2023/06/05 12:37:37;;;;;;;3.70;2.13;;;27.00;38.80;;;;;;4953505;28;20209;-71
2023/06/05 12:40:09;;;;;;;2.25;2.05;;;27.30;37.60;;;;;;4944449;28;20677;-73
2023/06/05 12:42:35;;;;;;;2.30;2.10;;;27.20;39.80;;;;;;4950159;28;20221;-71
2023/06/05 12:45:01;;;;;;;2.08;1.80;;;26.90;39.10;;;;;;4949823;28;20228;-73
2023/06/05 12:47:27;;;;;;;2.97;2.20;;;26.60;40.40;;;;;;4934303;28;20205;-72
2023/06/05 12:49:52;;;;;;;2.10;2.00;;;26.70;40.50;;;;;;4940317;28;20267;-71